METAR Data
IDs: Format: Raw Decoded Include TAF

Data at: 2148 UTC 24 Mar 2019

KE38 242135Z AUTO 00000KT 10SM CLR 25/M08 A3015 RMK AO2 T02531076
KE38 242115Z AUTO 27010KT 10SM CLR 26/M08 A3015 RMK AO2 T02601077
KE38 242055Z AUTO 25008G11KT 10SM CLR 26/M08 A3015 RMK AO2 T02621078
KE38 242035Z AUTO 29006G17KT 260V330 10SM CLR 26/M07 A3016 RMK AO2 T02611074
KE38 242015Z AUTO 27008G16KT 10SM CLR 26/M07 A3017 RMK AO2 T02591075
KE38 241955Z AUTO 24014G18KT 10SM CLR 26/M07 A3018 RMK AO2 T02601071
KE38 241935Z AUTO 30010KT 10SM CLR 25/M07 A3019 RMK AO2 T02531067
KE38 241915Z AUTO 25008G15KT 10SM CLR 25/M06 A3020 RMK AO2 T02541065
KE38 241855Z AUTO 27010KT 10SM CLR 25/M07 A3020 RMK AO2 T02521066
KE38 241835Z AUTO 30005KT 10SM CLR 25/M07 A3020 RMK AO2 T02531067
KE38 241815Z AUTO 24007KT 170V270 10SM CLR 24/M07 A3020 RMK AO2 T02421068
KE38 241755Z AUTO 00000KT 10SM CLR 24/M07 A3022 RMK AO2 T02401068 10243 20059
KE38 241735Z AUTO 00000KT 10SM CLR 23/M06 A3022 RMK AO2 T02331057
KE38 241715Z AUTO 21005KT 10SM CLR 23/M06 A3022 RMK AO2 T02261059
KE38 241655Z AUTO 00000KT 10SM CLR 22/M06 A3023 RMK AO2 T02231058
KE38 241635Z AUTO 06004KT 10SM CLR 21/M06 A3023 RMK AO2 T02131057
KE38 241615Z AUTO 35005KT 10SM CLR 21/M05 A3023 RMK AO2 T02121054
KE38 241555Z AUTO 32005KT 10SM CLR 21/M05 A3023 RMK AO2 T02121054
KE38 241535Z AUTO 35007KT 10SM CLR 21/M05 A3023 RMK AO2 T02061055
KE38 241515Z AUTO 00000KT 10SM CLR 19/M06 A3023 RMK AO2 T01941060
KE38 241455Z AUTO 00000KT 10SM CLR 19/M06 A3022 RMK AO2 T01911061
KE38 241435Z AUTO 00000KT 10SM CLR 16/M05 A3021 RMK AO2 T01591053
KE38 241415Z AUTO 17004KT 10SM CLR 13/M06 A3021 RMK AO2 T01321061
KE38 241355Z AUTO 19004KT 10SM CLR 10/M07 A3020 RMK AO2 T01021070
KE38 241335Z AUTO 18004KT 10SM CLR 09/M07 A3019 RMK AO2 T00851075
KE38 241315Z AUTO 00000KT 10SM CLR 06/M08 A3019 RMK AO2 T00621079
KE38 241255Z AUTO 18004KT 10SM CLR 06/M08 A3019 RMK AO2 T00601081
KE38 241235Z AUTO 19005KT 10SM CLR 07/M08 A3018 RMK AO2 T00651081
KE38 241215Z AUTO 20007KT 10SM CLR 07/M08 A3017 RMK AO2 T00721081
KE38 241155Z AUTO 21005KT 10SM CLR 06/M08 A3016 RMK AO2 T00621079 10100 20054
KE38 241135Z AUTO 18005KT 10SM CLR 06/M08 A3016 RMK AO2 T00641080
KE38 241115Z AUTO 22004KT 10SM CLR 08/M08 A3016 RMK AO2 T00791081
KE38 241055Z AUTO 20008KT 10SM CLR 06/M08 A3015 RMK AO2 T00641080
KE38 241035Z AUTO 23006KT 10SM CLR 06/M08 A3015 RMK AO2 T00581080
KE38 241015Z AUTO 19006KT 10SM CLR 08/M08 A3015 RMK AO2 T00771081
KE38 240955Z AUTO 00000KT 10SM CLR 06/M08 A3015 RMK AO2 T00641080
KE38 240935Z AUTO 00000KT 10SM CLR 06/M08 A3015 RMK AO2 T00641080
KE38 240915Z AUTO 22005KT 10SM CLR 05/M08 A3015 RMK AO2 T00541079
KE38 240855Z AUTO 26008KT 10SM CLR 08/M07 A3016 RMK AO2 T00801075
KE38 240835Z AUTO 25009KT 10SM CLR 06/M08 A3016 RMK AO2 T00591076
KE38 240815Z AUTO 25006KT 10SM CLR 07/M08 A3016 RMK AO2 T00651078
KE38 240755Z AUTO 24007KT 10SM CLR 06/M08 A3016 RMK AO2 T00641082
KE38 240735Z AUTO 21006KT 10SM CLR 08/M08 A3015 RMK AO2 T00781081
KE38 240715Z AUTO 21007KT 10SM CLR 07/M08 A3015 RMK AO2 T00741083
KE38 240655Z AUTO 24005KT 10SM CLR 07/M08 A3015 RMK AO2 T00741082
KE38 240635Z AUTO 23007KT 10SM CLR 09/M08 A3016 RMK AO2 T00901085
KE38 240615Z AUTO 23007KT 10SM CLR 10/M09 A3015 RMK AO2 T00991086
KE38 240555Z AUTO 16006KT 10SM CLR 08/M09 A3016 RMK AO2 T00821086 10229 20082 402410054
KE38 240535Z AUTO 25004KT 10SM CLR 10/M09 A3016 RMK AO2 T00991087
KE38 240515Z AUTO 26005KT 10SM CLR 10/M08 A3016 RMK AO2 T00961085
KE38 240455Z AUTO 24005KT 10SM CLR 11/M09 A3016 RMK AO2 T01101090
KE38 240435Z AUTO 20008KT 10SM CLR 10/M08 A3017 RMK AO2 T01011085
KE38 240415Z AUTO 24008KT 10SM CLR 10/M08 A3016 RMK AO2 T00981080
KE38 240355Z AUTO 24006KT 10SM CLR 11/M08 A3015 RMK AO2 T01051082
KE38 240335Z AUTO 25008KT 10SM CLR 11/M08 A3015 RMK AO2 T01141084
KE38 240315Z AUTO 24006KT 10SM CLR 13/M09 A3015 RMK AO2 T01321087
KE38 240255Z AUTO 23009KT 10SM CLR 13/M09 A3014 RMK AO2 T01281087
KE38 240235Z AUTO 21005KT 10SM CLR 14/M09 A3014 RMK AO2 T01371091
KE38 240215Z AUTO 22006KT 10SM CLR 13/M09 A3013 RMK AO2 T01301088
KE38 240155Z AUTO 22006KT 10SM CLR 14/M09 A3012 RMK AO2 T01411088
KE38 240135Z AUTO 21006KT 10SM CLR 16/M09 A3011 RMK AO2 T01601094
KE38 240115Z AUTO 19005KT 10SM CLR 18/M10 A3011 RMK AO2 T01841098
KE38 240055Z AUTO 22005KT 10SM CLR 20/M09 A3011 RMK AO2 T02041095
KE38 240035Z AUTO 23010KT 10SM CLR 22/M10 A3011 RMK AO2 T02191097
KE38 240015Z AUTO 24010KT 10SM CLR 23/M10 A3011 RMK AO2 T02261101
KE38 232355Z AUTO 23010KT 10SM CLR 23/M10 A3011 RMK AO2 T02291101 10241 20215
KE38 232335Z AUTO 23011G17KT 10SM CLR 24/M10 A3011 RMK AO2 T02351104
KE38 232315Z AUTO 24011G15KT 10SM CLR 23/M10 A3011 RMK AO2 T02331101
KE38 232255Z AUTO 26012G16KT 10SM CLR 23/M10 A3011 RMK AO2 T02271097
KE38 232235Z AUTO 25013G18KT 10SM CLR 23/M10 A3011 RMK AO2 T02281097
KE38 232215Z AUTO 25010G19KT 220V280 10SM CLR 24/M09 A3011 RMK AO2 T02371095
KE38 232155Z AUTO 25014G20KT 10SM CLR 24/M09 A3012 RMK AO2 T02371095
KE38 232135Z AUTO 25011G17KT 10SM CLR 23/M10 A3012 RMK AO2 T02311097
KE38 232115Z AUTO 29011G15KT 10SM CLR 24/M09 A3012 RMK AO2 T02361094
KE38 232055Z AUTO 27015G18KT 240V320 10SM CLR 23/M10 A3013 RMK AO2 T02321100
KE38 232035Z AUTO 27015G22KT 10SM CLR 24/M09 A3013 RMK AO2 T02381093
KE38 232015Z AUTO 25008G22KT 10SM CLR 23/M09 A3013 RMK AO2 T02301091
KE38 231955Z AUTO 25012G20KT 10SM CLR 23/M09 A3013 RMK AO2 T02321090
KE38 231935Z AUTO 27015G20KT 10SM CLR 23/M08 A3014 RMK AO2 T02311078
KE38 231915Z AUTO 30012G21KT 10SM CLR 22/M08 A3015 RMK AO2 T02211083
KE38 231855Z AUTO 27016G21KT 10SM CLR 23/M09 A3016 RMK AO2 T02251087
KE38 231835Z AUTO 27010G18KT 230V300 10SM CLR 22/M08 A3017 RMK AO2 T02241077
KE38 231815Z AUTO 26014G18KT 10SM CLR 22/M07 A3017 RMK AO2 T02171072
KE38 231755Z AUTO 29011G20KT 10SM CLR 21/M07 A3018 RMK AO2 T02131070 10215 20065
KE38 231735Z AUTO 26014G18KT 10SM CLR 22/M07 A3019 RMK AO2 T02151071
KE38 231715Z AUTO 25011G19KT 10SM CLR 21/M07 A3019 RMK AO2 T02081071
KE38 231655Z AUTO 25013G16KT 10SM CLR 21/M07 A3020 RMK AO2 T02081068
KE38 231635Z AUTO 24011G15KT 10SM CLR 20/M07 A3020 RMK AO2 T01961075
KE38 231615Z AUTO 28012G20KT 10SM CLR 19/M08 A3020 RMK AO2 T01921076
KE38 231555Z AUTO 21004KT 10SM CLR 18/M08 A3020 RMK AO2 T01821084
KE38 231535Z AUTO 19005KT 10SM CLR 18/M09 A3020 RMK AO2 T01751092
KE38 231515Z AUTO 25005KT 10SM CLR 17/M09 A3020 RMK AO2 T01711086
KE38 231455Z AUTO 24008KT 10SM CLR 17/M08 A3019 RMK AO2 T01651078
KE38 231435Z AUTO 25008KT 10SM CLR 15/M06 A3019 RMK AO2 T01531063
KE38 231415Z AUTO 25007KT 10SM CLR 13/M04 A3018 RMK AO2 T01311042
KE38 231355Z AUTO 26008KT 10SM CLR 12/M04 A3018 RMK AO2 T01241045
KE38 231335Z AUTO 27009KT 10SM CLR 10/M04 A3017 RMK AO2 T01021040
KE38 231315Z AUTO 28006KT 10SM CLR 07/M03 A3016 RMK AO2 T00651033
KE38 231255Z AUTO 23007KT 10SM CLR 07/M03 A3015 RMK AO2 T00731029
KE38 231235Z AUTO 23005KT 10SM CLR 08/M02 A3015 RMK AO2 T00801025
KE38 231215Z AUTO 22007KT 10SM CLR 08/M01 A3014 RMK AO2 T00791012
KE38 231155Z AUTO 24008KT 10SM CLR 08/M01 A3014 RMK AO2 T00751006 10104 20054
KE38 231135Z AUTO 22007KT 10SM CLR 06/00 A3013 RMK AO2 T00591005
KE38 231115Z AUTO 22004KT 10SM CLR 06/00 A3012 RMK AO2 T00641002
KE38 231055Z AUTO 24008KT 10SM CLR 06/00 A3012 RMK AO2 T00600001
KE38 231035Z AUTO 20003KT 10SM CLR 06/01 A3012 RMK AO2 T00610006
KE38 231015Z AUTO 25007KT 10SM CLR 07/01 A3012 RMK AO2 T00710010
KE38 230955Z AUTO 23007KT 10SM CLR 07/01 A3011 RMK AO2 T00650010